createdAt,value
2024-01-05T00:02:04.718Z,100.00
2024-01-05T00:04:31.403Z,100.00
2024-01-05T00:06:58.211Z,100.00
2024-01-05T00:09:26.163Z,100.00
2024-01-05T00:11:53.216Z,100.00
2024-01-05T00:14:19.799Z,100.00
2024-01-05T00:16:46.417Z,100.00
2024-01-05T00:19:13.110Z,100.00
2024-01-05T00:21:39.694Z,100.00
2024-01-05T00:24:06.510Z,100.00
2024-01-05T00:26:33.167Z,100.00
2024-01-05T00:28:59.709Z,100.00
2024-01-05T00:31:26.313Z,100.00
2024-01-05T00:33:53.055Z,100.00
2024-01-05T00:36:19.681Z,100.00
2024-01-05T00:38:46.235Z,100.00
2024-01-05T00:41:12.952Z,100.00
2024-01-05T00:43:39.666Z,100.00
2024-01-05T00:46:06.247Z,100.00
2024-01-05T00:48:32.987Z,100.00
2024-01-05T00:50:59.692Z,100.00
2024-01-05T00:53:26.230Z,100.00
2024-01-05T00:55:52.794Z,100.00
2024-01-05T00:58:19.505Z,100.00
2024-01-05T01:00:46.209Z,100.00
2024-01-05T01:03:13.032Z,100.00
2024-01-05T01:05:39.582Z,100.00
2024-01-05T01:08:06.386Z,100.00
2024-01-05T01:10:33.317Z,100.00
2024-01-05T01:13:02.365Z,100.00
2024-01-05T01:15:29.091Z,100.00
2024-01-05T01:17:55.873Z,100.00
2024-01-05T01:20:22.687Z,100.00
2024-01-05T01:22:49.307Z,100.00
2024-01-05T01:25:15.914Z,100.00
2024-01-05T01:27:42.486Z,100.00
2024-01-05T01:30:09.638Z,100.00
2024-01-05T01:32:36.480Z,100.00
2024-01-05T01:35:03.218Z,100.00
2024-01-05T01:37:29.953Z,100.00
2024-01-05T01:39:56.658Z,100.00
2024-01-05T01:42:23.363Z,100.00
2024-01-05T01:44:50.086Z,100.00
2024-01-05T01:47:17.033Z,100.00
2024-01-05T01:49:43.837Z,100.00
2024-01-05T01:52:10.812Z,100.00
2024-01-05T01:54:37.517Z,100.00
2024-01-05T01:57:05.961Z,100.00
2024-01-05T01:59:32.826Z,100.00
2024-01-05T02:02:00.241Z,100.00
2024-01-05T02:04:28.152Z,100.00
2024-01-05T02:06:55.481Z,100.00
2024-01-05T02:09:22.329Z,100.00
2024-01-05T02:11:49.039Z,100.00
2024-01-05T02:14:15.648Z,100.00
2024-01-05T02:16:42.783Z,100.00
2024-01-05T02:19:09.928Z,100.00
2024-01-05T02:21:43.113Z,100.00
2024-01-05T02:24:09.947Z,100.00
2024-01-05T02:26:36.682Z,100.00
2024-01-05T02:29:04.046Z,100.00
2024-01-05T02:31:30.762Z,100.00
2024-01-05T02:33:57.595Z,100.00
2024-01-05T02:36:24.284Z,100.00
2024-01-05T02:38:51.040Z,100.00
2024-01-05T02:41:17.596Z,100.00
2024-01-05T02:43:44.175Z,100.00
2024-01-05T02:46:10.713Z,100.00
2024-01-05T02:48:37.375Z,100.00
2024-01-05T02:51:04.244Z,100.00
2024-01-05T02:53:30.779Z,100.00
2024-01-05T02:55:57.311Z,100.00
2024-01-05T02:58:23.949Z,100.00
2024-01-05T03:00:50.759Z,100.00
2024-01-05T03:03:17.525Z,100.00
2024-01-05T03:05:44.280Z,100.00
2024-01-05T03:08:10.887Z,100.00
2024-01-05T03:10:37.511Z,100.00
2024-01-05T03:13:04.391Z,100.00
2024-01-05T03:15:31.103Z,100.00
2024-01-05T03:17:57.821Z,100.00
2024-01-05T03:20:24.429Z,100.00
2024-01-05T03:22:50.988Z,100.00
2024-01-05T03:25:17.510Z,100.00
2024-01-05T03:27:44.021Z,100.00
2024-01-05T03:30:11.105Z,100.00
2024-01-05T03:32:37.834Z,100.00
2024-01-05T03:35:04.751Z,100.00
2024-01-05T03:37:31.314Z,100.00
2024-01-05T03:39:57.841Z,100.00
2024-01-05T03:42:24.445Z,100.00
2024-01-05T03:44:51.100Z,100.00
2024-01-05T03:47:17.680Z,100.00
2024-01-05T03:49:44.314Z,100.00
2024-01-05T03:52:10.962Z,100.00
2024-01-05T03:54:37.501Z,100.00
2024-01-05T03:57:04.430Z,100.00
2024-01-05T03:59:31.032Z,100.00
2024-01-05T04:01:57.579Z,100.00
2024-01-05T04:04:24.244Z,100.00
2024-01-05T04:06:51.531Z,100.00
2024-01-05T04:09:18.122Z,100.00
2024-01-05T04:11:44.804Z,100.00
2024-01-05T04:14:11.356Z,100.00
2024-01-05T04:16:37.904Z,100.00
2024-01-05T04:19:04.684Z,100.00
2024-01-05T04:21:31.961Z,100.00
2024-01-05T04:23:59.496Z,100.00
2024-01-05T04:26:26.882Z,100.00
2024-01-05T04:28:53.653Z,100.00
2024-01-05T04:31:20.319Z,100.00
2024-01-05T04:33:47.083Z,100.00
2024-01-05T04:36:13.806Z,100.00
2024-01-05T04:38:40.346Z,100.00
2024-01-05T04:41:07.198Z,100.00
2024-01-05T04:43:33.819Z,100.00
2024-01-05T04:46:01.134Z,100.00
2024-01-05T04:48:27.973Z,100.00
2024-01-05T04:50:54.738Z,100.00
2024-01-05T04:53:21.404Z,100.00
2024-01-05T04:55:47.993Z,100.00
2024-01-05T04:58:14.575Z,100.00
2024-01-05T05:00:41.213Z,100.00
2024-01-05T05:03:07.872Z,100.00
2024-01-05T05:05:34.473Z,100.00
2024-01-05T05:08:01.088Z,100.00
2024-01-05T05:10:27.699Z,100.00
2024-01-05T05:12:54.357Z,100.00
2024-01-05T05:15:21.235Z,100.00
2024-01-05T05:17:48.170Z,100.00
2024-01-05T05:20:15.254Z,100.00
2024-01-05T05:22:41.822Z,100.00
2024-01-05T05:25:08.807Z,100.00
2024-01-05T05:27:35.430Z,100.00
2024-01-05T05:30:06.511Z,100.00
2024-01-05T05:32:33.692Z,100.00
2024-01-05T05:35:00.376Z,100.00
2024-01-05T05:37:27.013Z,100.00
2024-01-05T05:39:53.606Z,100.00
2024-01-05T05:42:20.209Z,100.00
2024-01-05T05:44:46.763Z,100.00
2024-01-05T05:47:13.432Z,100.00
2024-01-05T05:49:40.105Z,100.00
2024-01-05T05:52:07.018Z,100.00
2024-01-05T05:54:33.627Z,100.00
2024-01-05T05:57:00.299Z,100.00
2024-01-05T05:59:26.866Z,100.00
2024-01-05T06:01:53.395Z,100.00
2024-01-05T06:04:20.000Z,100.00
2024-01-05T06:06:47.462Z,100.00
2024-01-05T06:09:14.107Z,100.00
2024-01-05T06:11:40.688Z,100.00
2024-01-05T06:14:07.233Z,100.00
2024-01-05T06:16:33.799Z,100.00
2024-01-05T06:19:00.435Z,100.00
2024-01-05T06:21:27.016Z,100.00
2024-01-05T06:23:53.610Z,100.00
2024-01-05T06:26:20.499Z,100.00
2024-01-05T06:28:47.050Z,100.00
2024-01-05T06:31:15.043Z,100.00
2024-01-05T06:33:41.747Z,100.00
2024-01-05T06:36:08.427Z,100.00
2024-01-05T06:38:35.099Z,100.00
2024-01-05T06:41:01.671Z,100.00
2024-01-05T06:43:28.202Z,100.00
2024-01-05T06:45:54.769Z,100.00
2024-01-05T06:48:21.508Z,100.00
2024-01-05T06:50:48.275Z,100.00
2024-01-05T06:53:14.867Z,100.00
2024-01-05T06:55:41.403Z,100.00
2024-01-05T06:58:07.948Z,100.00
2024-01-05T07:00:34.595Z,100.00
2024-01-05T07:03:02.428Z,100.00
2024-01-05T07:05:29.001Z,100.00
2024-01-05T07:07:55.568Z,100.00
2024-01-05T07:10:22.157Z,100.00
2024-01-05T07:12:48.665Z,100.00
2024-01-05T07:15:15.461Z,100.00
2024-01-05T07:17:44.012Z,100.00
2024-01-05T07:20:11.093Z,100.00
2024-01-05T07:22:37.601Z,100.00
2024-01-05T07:25:04.502Z,100.00
2024-01-05T07:27:31.028Z,100.00
2024-01-05T07:29:57.616Z,100.00
2024-01-05T07:32:24.190Z,100.00
2024-01-05T07:34:50.703Z,100.00
2024-01-05T07:37:17.228Z,100.00
2024-01-05T07:39:43.821Z,100.00
2024-01-05T07:42:10.356Z,100.00
2024-01-05T07:44:36.990Z,100.00
2024-01-05T07:47:03.555Z,100.00
2024-01-05T07:49:30.261Z,100.00
2024-01-05T07:51:57.048Z,100.00
2024-01-05T07:54:23.645Z,100.00
2024-01-05T07:56:50.204Z,100.00
2024-01-05T07:59:16.825Z,100.00
2024-01-05T08:01:43.596Z,100.00
2024-01-05T08:04:10.470Z,100.00
2024-01-05T08:06:37.167Z,100.00
2024-01-05T08:09:04.049Z,100.00
2024-01-05T08:11:30.654Z,100.00
2024-01-05T08:13:57.239Z,100.00
2024-01-05T08:16:23.781Z,100.00
2024-01-05T08:18:50.886Z,100.00
2024-01-05T08:21:17.489Z,100.00
2024-01-05T08:23:44.042Z,100.00
2024-01-05T08:26:10.543Z,100.00
2024-01-05T08:28:37.127Z,100.00
2024-01-05T08:31:03.817Z,100.00
2024-01-05T08:33:30.475Z,100.00
2024-01-05T08:35:57.165Z,100.00
2024-01-05T08:38:23.756Z,100.00
2024-01-05T08:40:50.279Z,100.00
2024-01-05T08:43:16.886Z,99.74
2024-01-05T08:45:43.530Z,99.71
2024-01-05T08:48:10.243Z,99.68
2024-01-05T08:50:36.894Z,99.77
2024-01-05T08:53:04.170Z,98.97
2024-01-05T08:55:30.778Z,98.77
2024-01-05T08:57:57.395Z,98.06
2024-01-05T09:00:24.037Z,96.85
2024-01-05T09:02:50.810Z,97.13
2024-01-05T09:05:17.480Z,97.00
2024-01-05T09:07:44.144Z,97.93
2024-01-05T09:10:10.697Z,97.84
2024-01-05T09:12:38.828Z,98.47
2024-01-05T09:15:06.558Z,98.51
2024-01-05T09:17:33.240Z,99.51
2024-01-05T09:19:59.870Z,98.46
2024-01-05T09:22:26.574Z,100.00
2024-01-05T09:24:53.133Z,99.12
2024-01-05T09:27:19.838Z,100.00
2024-01-05T09:29:46.392Z,99.04
2024-01-05T09:32:13.190Z,99.58
2024-01-05T09:34:42.215Z,99.53
2024-01-05T09:37:08.740Z,99.22
2024-01-05T09:39:35.327Z,100.00
2024-01-05T09:42:01.959Z,100.00
2024-01-05T09:44:30.822Z,99.94
2024-01-05T09:46:57.759Z,99.02
2024-01-05T09:49:24.655Z,98.45
2024-01-05T09:51:52.803Z,98.81
2024-01-05T09:54:19.440Z,99.07
2024-01-05T09:56:49.175Z,99.05
2024-01-05T09:59:15.699Z,99.60
2024-01-05T10:01:44.086Z,98.98
2024-01-05T10:04:10.811Z,99.41
2024-01-05T10:06:37.446Z,99.28
2024-01-05T10:09:04.200Z,99.00
2024-01-05T10:11:35.676Z,98.97
2024-01-05T10:14:08.994Z,99.11
2024-01-05T10:16:35.613Z,99.39
2024-01-05T10:19:11.249Z,99.36
2024-01-05T10:21:38.327Z,99.00
2024-01-05T10:24:05.245Z,99.81
2024-01-05T10:26:31.814Z,98.73
2024-01-05T10:29:00.350Z,98.28
2024-01-05T10:31:27.040Z,98.84
2024-01-05T10:33:55.591Z,98.20
2024-01-05T10:36:23.722Z,97.80
2024-01-05T10:38:51.187Z,98.93
2024-01-05T10:41:18.207Z,97.44
2024-01-05T10:43:45.594Z,92.32
2024-01-05T10:46:12.680Z,89.67
2024-01-05T10:48:41.221Z,88.51
2024-01-05T10:51:08.512Z,86.22
2024-01-05T10:53:38.870Z,83.79
2024-01-05T10:56:07.846Z,82.28
2024-01-05T10:58:34.481Z,80.88
2024-01-05T11:01:02.350Z,79.66
2024-01-05T11:03:41.556Z,77.41
2024-01-05T11:06:08.869Z,78.03
2024-01-05T11:08:53.600Z,79.17
2024-01-05T11:11:36.826Z,80.99
2024-01-05T11:14:27.706Z,75.39
2024-01-05T11:17:08.363Z,75.15
2024-01-05T11:20:14.981Z,73.22
2024-01-05T11:22:47.269Z,76.55
2024-01-05T11:25:15.200Z,75.80
2024-01-05T11:27:45.801Z,74.77
2024-01-05T11:30:12.754Z,73.79
2024-01-05T11:32:40.219Z,73.04
2024-01-05T11:35:18.923Z,72.68
2024-01-05T11:37:45.904Z,71.61
2024-01-05T11:40:29.459Z,71.58
2024-01-05T11:42:57.018Z,73.54
2024-01-05T11:45:45.411Z,69.05
2024-01-05T11:48:35.827Z,68.58
2024-01-05T11:51:10.594Z,70.02
2024-01-05T11:53:37.700Z,72.81
2024-01-05T11:56:05.658Z,71.63
2024-01-05T11:58:32.298Z,71.87
2024-01-05T12:01:04.035Z,74.06
2024-01-05T12:03:30.990Z,71.30
2024-01-05T12:06:00.651Z,71.45
2024-01-05T12:08:27.898Z,72.55
2024-01-05T12:10:55.352Z,73.24
2024-01-05T12:13:22.695Z,72.74
2024-01-05T12:15:56.186Z,69.37
2024-01-05T12:18:34.305Z,68.88
2024-01-05T12:21:05.007Z,68.59
2024-01-05T12:23:31.685Z,67.10
2024-01-05T12:26:02.013Z,68.20
2024-01-05T12:28:30.037Z,68.29
2024-01-05T12:30:58.248Z,69.26
2024-01-05T12:33:26.754Z,68.60
2024-01-05T12:35:53.819Z,69.51
2024-01-05T12:38:27.575Z,68.80
2024-01-05T12:41:13.062Z,68.03
2024-01-05T12:43:45.753Z,69.88
2024-01-05T12:46:13.017Z,68.96
2024-01-05T12:48:40.024Z,73.07
2024-01-05T12:51:14.076Z,70.31
2024-01-05T12:53:40.896Z,70.69
2024-01-05T12:56:12.254Z,70.92
2024-01-05T12:58:40.671Z,72.36
2024-01-05T13:01:15.255Z,69.33
2024-01-05T13:03:48.243Z,65.01
2024-01-05T13:06:14.939Z,64.90
2024-01-05T13:08:41.516Z,60.48
2024-01-05T13:11:08.151Z,63.71
2024-01-05T13:13:34.797Z,61.06
2024-01-05T13:16:01.416Z,65.57
2024-01-05T13:18:28.185Z,63.91
2024-01-05T13:20:54.898Z,65.42
2024-01-05T13:23:21.447Z,64.63
2024-01-05T13:25:48.183Z,64.40
2024-01-05T13:28:14.687Z,64.69
2024-01-05T13:30:41.438Z,65.48
2024-01-05T13:33:08.227Z,64.27
2024-01-05T13:35:34.826Z,63.53
2024-01-05T13:38:01.408Z,64.60
2024-01-05T13:40:27.964Z,63.96
2024-01-05T13:42:54.460Z,61.69
2024-01-05T13:45:21.076Z,61.69
2024-01-05T13:47:47.993Z,62.48
2024-01-05T13:50:14.584Z,62.22
2024-01-05T13:52:41.822Z,63.09
2024-01-05T13:55:09.017Z,63.22
2024-01-05T13:57:35.490Z,66.02
2024-01-05T14:00:02.463Z,64.77
2024-01-05T14:02:29.119Z,66.26
2024-01-05T14:04:55.832Z,68.11
2024-01-05T14:07:22.468Z,67.01
2024-01-05T14:09:49.140Z,67.51
2024-01-05T14:12:15.779Z,68.41
2024-01-05T14:14:42.426Z,66.88
2024-01-05T14:17:09.137Z,69.58
2024-01-05T14:19:35.826Z,68.69
2024-01-05T14:22:02.486Z,71.36
2024-01-05T14:24:29.105Z,70.17
2024-01-05T14:26:56.339Z,70.51
2024-01-05T14:29:24.072Z,72.41
2024-01-05T14:31:52.049Z,71.59
2024-01-05T14:34:18.721Z,67.17
2024-01-05T14:36:45.290Z,66.48
2024-01-05T14:39:11.870Z,67.76
2024-01-05T14:41:38.606Z,70.42
2024-01-05T14:44:05.411Z,72.81
2024-01-05T14:46:32.155Z,70.68
2024-01-05T14:48:59.054Z,72.03
2024-01-05T14:51:26.944Z,73.55
2024-01-05T14:53:53.498Z,72.97
2024-01-05T14:56:20.093Z,72.59
2024-01-05T14:58:48.857Z,74.53
2024-01-05T15:01:17.475Z,74.22
2024-01-05T15:03:44.307Z,75.21
2024-01-05T15:06:11.806Z,74.76
2024-01-05T15:08:38.656Z,75.73
2024-01-05T15:11:06.609Z,77.52
2024-01-05T15:13:33.522Z,78.21
2024-01-05T15:16:00.722Z,78.06
2024-01-05T15:18:27.730Z,77.24
2024-01-05T15:20:55.143Z,78.60
2024-01-05T15:23:21.753Z,79.61
2024-01-05T15:25:48.540Z,79.35
2024-01-05T15:28:15.367Z,79.77
2024-01-05T15:30:42.070Z,79.81
2024-01-05T15:33:08.905Z,80.41
2024-01-05T15:35:37.236Z,80.35
2024-01-05T15:38:05.056Z,80.05
2024-01-05T15:40:33.172Z,80.89
2024-01-05T15:43:00.886Z,81.07
2024-01-05T15:45:28.033Z,82.07
2024-01-05T15:47:54.722Z,82.62
2024-01-05T15:50:21.301Z,83.15
2024-01-05T15:52:48.083Z,84.01
2024-01-05T15:55:14.643Z,83.62
2024-01-05T15:57:41.226Z,83.29
2024-01-05T16:00:08.654Z,83.56
2024-01-05T16:02:35.212Z,83.54
2024-01-05T16:05:01.788Z,83.64
2024-01-05T16:07:28.388Z,83.69
2024-01-05T16:09:54.987Z,84.55
2024-01-05T16:12:21.578Z,84.06
2024-01-05T16:14:48.483Z,85.05
2024-01-05T16:17:15.335Z,84.27
2024-01-05T16:19:41.990Z,84.39
2024-01-05T16:22:08.700Z,84.75
2024-01-05T16:24:35.291Z,86.10
2024-01-05T16:27:01.868Z,85.82
2024-01-05T16:29:28.476Z,85.38
2024-01-05T16:31:55.053Z,84.99
2024-01-05T16:34:21.766Z,85.23
2024-01-05T16:36:48.489Z,85.80
2024-01-05T16:39:15.090Z,85.39
2024-01-05T16:41:41.683Z,86.31
2024-01-05T16:44:08.255Z,86.46
2024-01-05T16:46:34.746Z,86.93
2024-01-05T16:49:01.414Z,86.47
2024-01-05T16:51:30.446Z,86.10
2024-01-05T16:53:58.747Z,86.32
2024-01-05T16:56:25.339Z,84.84
2024-01-05T16:58:56.003Z,83.99
2024-01-05T17:01:26.203Z,79.99
2024-01-05T17:03:53.029Z,81.08
2024-01-05T17:06:20.553Z,80.26
2024-01-05T17:08:47.495Z,79.32
2024-01-05T17:11:14.069Z,80.81
2024-01-05T17:13:40.593Z,82.94
2024-01-05T17:16:11.155Z,83.74
2024-01-05T17:18:38.485Z,84.69
2024-01-05T17:21:05.357Z,85.44
2024-01-05T17:23:32.114Z,86.17
2024-01-05T17:25:58.629Z,86.72
2024-01-05T17:28:25.213Z,87.04
2024-01-05T17:30:51.863Z,86.87
2024-01-05T17:33:18.534Z,87.01
2024-01-05T17:35:45.206Z,88.34
2024-01-05T17:38:11.803Z,88.19
2024-01-05T17:40:38.358Z,88.97
2024-01-05T17:43:04.941Z,88.98
2024-01-05T17:45:31.544Z,88.71
2024-01-05T17:47:58.234Z,88.73
2024-01-05T17:50:24.971Z,88.39
2024-01-05T17:52:51.514Z,88.88
2024-01-05T17:55:18.034Z,89.01
2024-01-05T17:57:44.654Z,89.10
2024-01-05T18:00:11.954Z,89.32
2024-01-05T18:02:38.939Z,89.64
2024-01-05T18:05:06.119Z,90.18
2024-01-05T18:07:32.770Z,89.90
2024-01-05T18:09:59.424Z,90.11
2024-01-05T18:12:26.068Z,90.78
2024-01-05T18:14:52.644Z,89.95
2024-01-05T18:17:19.214Z,90.42
2024-01-05T18:19:45.854Z,90.70
2024-01-05T18:22:13.402Z,90.81
2024-01-05T18:24:39.978Z,90.77
2024-01-05T18:27:06.575Z,90.75
2024-01-05T18:29:33.179Z,90.83
2024-01-05T18:31:59.797Z,90.86
2024-01-05T18:34:27.018Z,90.88
2024-01-05T18:36:54.107Z,90.15
2024-01-05T18:39:21.216Z,90.06
2024-01-05T18:41:48.934Z,90.37
2024-01-05T18:44:15.810Z,90.13
2024-01-05T18:46:42.620Z,90.53
2024-01-05T18:49:09.531Z,91.02
2024-01-05T18:51:36.487Z,90.91
2024-01-05T18:54:03.289Z,90.83
2024-01-05T18:56:29.875Z,91.05
2024-01-05T18:58:56.527Z,91.32
2024-01-05T19:01:23.283Z,91.11
2024-01-05T19:03:49.924Z,90.29
2024-01-05T19:06:16.626Z,89.01
2024-01-05T19:08:43.507Z,88.22
2024-01-05T19:11:10.202Z,88.84
2024-01-05T19:13:36.753Z,88.43
2024-01-05T19:16:03.331Z,89.37
2024-01-05T19:18:30.377Z,89.59
2024-01-05T19:20:56.994Z,90.28
2024-01-05T19:23:23.543Z,90.14
2024-01-05T19:25:50.269Z,90.18
2024-01-05T19:28:16.856Z,90.32
2024-01-05T19:30:43.536Z,90.51
2024-01-05T19:33:10.238Z,91.03
2024-01-05T19:35:36.789Z,91.14
2024-01-05T19:38:03.429Z,90.69
2024-01-05T19:40:29.959Z,91.65
2024-01-05T19:42:56.510Z,90.85
2024-01-05T19:45:23.109Z,91.68
2024-01-05T19:47:49.759Z,92.65
2024-01-05T19:50:16.460Z,92.78
2024-01-05T19:52:42.983Z,92.52
2024-01-05T19:55:09.660Z,92.15
2024-01-05T19:57:36.264Z,92.74
2024-01-05T20:00:04.377Z,92.97
2024-01-05T20:02:31.054Z,92.73
2024-01-05T20:04:57.601Z,93.03
2024-01-05T20:07:24.279Z,91.84
2024-01-05T20:09:50.964Z,92.52
2024-01-05T20:12:17.801Z,92.83
2024-01-05T20:14:44.594Z,93.30
2024-01-05T20:17:11.404Z,93.36
2024-01-05T20:19:38.030Z,93.84
2024-01-05T20:22:05.588Z,93.40
2024-01-05T20:24:32.744Z,94.46
2024-01-05T20:27:01.526Z,94.02
2024-01-05T20:29:28.114Z,94.10
2024-01-05T20:31:54.684Z,95.54
2024-01-05T20:34:21.983Z,94.58
2024-01-05T20:36:48.673Z,93.33
2024-01-05T20:39:15.392Z,93.44
2024-01-05T20:41:41.991Z,94.18
2024-01-05T20:44:11.171Z,94.37
2024-01-05T20:46:41.697Z,94.56
2024-01-05T20:49:08.433Z,95.32
2024-01-05T20:51:35.090Z,94.90
2024-01-05T20:54:01.718Z,94.97
2024-01-05T20:56:28.236Z,95.92
2024-01-05T20:58:54.805Z,96.54
2024-01-05T21:01:21.570Z,96.10
2024-01-05T21:03:48.285Z,96.48
2024-01-05T21:06:14.918Z,96.04
2024-01-05T21:08:41.478Z,96.52
2024-01-05T21:11:07.994Z,96.17
2024-01-05T21:13:34.554Z,96.52
2024-01-05T21:16:05.260Z,96.97
2024-01-05T21:18:31.930Z,97.54
2024-01-05T21:21:00.423Z,97.44
2024-01-05T21:23:28.372Z,97.37
2024-01-05T21:25:54.911Z,97.10
2024-01-05T21:28:21.455Z,96.79
2024-01-05T21:30:48.073Z,96.24
2024-01-05T21:33:14.911Z,97.09
2024-01-05T21:35:41.554Z,97.37
2024-01-05T21:38:08.133Z,97.87
2024-01-05T21:40:34.672Z,97.93
2024-01-05T21:43:01.277Z,98.21
2024-01-05T21:45:27.979Z,97.31
2024-01-05T21:47:54.668Z,97.31
2024-01-05T21:50:21.588Z,97.44
2024-01-05T21:52:48.274Z,96.92
2024-01-05T21:55:14.827Z,97.87
2024-01-05T21:57:41.407Z,96.61
2024-01-05T22:00:08.696Z,96.98
2024-01-05T22:02:35.325Z,97.10
2024-01-05T22:05:01.915Z,97.27
2024-01-05T22:07:28.612Z,97.98
2024-01-05T22:09:55.267Z,98.30
2024-01-05T22:12:21.968Z,97.74
2024-01-05T22:14:48.633Z,98.38
2024-01-05T22:17:15.186Z,98.73
2024-01-05T22:19:41.856Z,98.30
2024-01-05T22:22:08.500Z,97.24
2024-01-05T22:24:35.143Z,98.69
2024-01-05T22:27:01.706Z,98.70
2024-01-05T22:29:28.242Z,98.77
2024-01-05T22:31:54.836Z,98.91
2024-01-05T22:34:21.496Z,98.88
2024-01-05T22:36:48.199Z,99.23
2024-01-05T22:39:14.752Z,98.96
2024-01-05T22:41:41.277Z,98.84
2024-01-05T22:44:07.862Z,98.90
2024-01-05T22:46:34.409Z,98.52
2024-01-05T22:49:01.125Z,98.57
2024-01-05T22:51:28.448Z,99.25
2024-01-05T22:53:55.077Z,99.34
2024-01-05T22:56:21.646Z,98.35
2024-01-05T22:58:48.319Z,98.22
2024-01-05T23:01:22.655Z,98.52
2024-01-05T23:03:50.789Z,98.54
2024-01-05T23:06:17.784Z,98.82
2024-01-05T23:08:45.065Z,98.40
2024-01-05T23:11:11.932Z,98.61
2024-01-05T23:13:38.486Z,99.40
2024-01-05T23:16:05.499Z,98.92
2024-01-05T23:18:32.781Z,99.33
2024-01-05T23:20:59.444Z,99.24
2024-01-05T23:23:25.976Z,98.91
2024-01-05T23:25:52.601Z,98.75
2024-01-05T23:28:19.132Z,98.67
2024-01-05T23:30:45.766Z,98.71
2024-01-05T23:33:12.608Z,98.21
2024-01-05T23:35:39.311Z,98.24
2024-01-05T23:38:05.886Z,97.56
2024-01-05T23:40:32.504Z,98.45
2024-01-05T23:42:59.044Z,99.46
2024-01-05T23:45:25.621Z,99.11
2024-01-05T23:47:52.188Z,98.59
2024-01-05T23:50:18.718Z,98.27
2024-01-05T23:52:45.254Z,97.98
2024-01-05T23:55:11.864Z,97.72
2024-01-05T23:57:38.485Z,97.32
